createdAt,value
2022-10-16T00:06:32.877Z,99345.55
2022-10-16T00:16:06.892Z,99348.12
2022-10-16T00:25:41.137Z,99340.05
2022-10-16T00:35:14.607Z,99350.63
2022-10-16T00:44:49.039Z,99359.16
2022-10-16T00:54:23.326Z,99360.23
2022-10-16T00:55:27.432Z,99365.44
2022-10-16T01:04:59.441Z,99373.52
2022-10-16T01:14:33.998Z,99365.83
2022-10-16T01:24:09.503Z,99377.28
2022-10-16T01:33:43.402Z,99375.83
2022-10-16T01:43:16.361Z,99371.42
2022-10-16T01:52:52.264Z,99393.09
2022-10-16T02:02:25.273Z,99382.97
2022-10-16T02:11:59.573Z,99392.20
2022-10-16T02:21:35.425Z,99389.81
2022-10-16T02:31:08.083Z,99401.59
2022-10-16T02:40:42.585Z,99413.45
2022-10-16T02:50:18.079Z,99416.30
2022-10-16T02:59:50.140Z,99420.66
2022-10-16T03:09:25.827Z,99419.88
2022-10-16T03:19:00.009Z,99428.75
2022-10-16T03:28:34.321Z,99433.58
2022-10-16T03:38:08.626Z,99415.43
2022-10-16T03:47:42.273Z,99440.43
2022-10-16T03:57:16.461Z,99434.83
2022-10-16T04:06:49.442Z,99441.28
2022-10-16T04:16:25.160Z,99428.85
2022-10-16T04:25:59.308Z,99434.50
2022-10-16T04:35:31.173Z,99444.55
2022-10-16T04:45:05.551Z,99454.47
2022-10-16T04:54:41.192Z,99466.51
2022-10-16T05:04:15.758Z,99472.85
2022-10-16T05:13:49.916Z,99462.10
2022-10-16T05:23:24.789Z,99452.45
2022-10-16T05:32:57.604Z,99455.77
2022-10-16T05:42:31.639Z,99476.66
2022-10-16T05:52:06.157Z,99498.08
2022-10-16T06:01:42.342Z,99497.53
2022-10-16T06:11:15.079Z,99515.81
2022-10-16T06:20:49.614Z,99506.66
2022-10-16T06:30:24.404Z,99504.78
2022-10-16T06:39:58.804Z,99520.76
2022-10-16T06:49:35.277Z,99530.34
2022-10-16T06:59:07.941Z,99541.83
2022-10-16T07:08:42.612Z,99558.92
2022-10-16T07:18:19.387Z,99570.23
2022-10-16T07:27:54.509Z,99575.09
2022-10-16T07:37:26.744Z,99587.63
2022-10-16T07:47:03.250Z,99604.71
2022-10-16T07:56:38.707Z,99622.55
2022-10-16T08:06:10.619Z,99649.36
2022-10-16T08:15:46.879Z,99656.09
2022-10-16T08:16:50.853Z,99655.45
2022-10-16T08:26:22.931Z,99675.30
2022-10-16T08:35:57.506Z,99676.98
2022-10-16T08:45:34.636Z,99700.47
2022-10-16T08:55:06.155Z,99712.76
2022-10-16T09:04:42.710Z,99719.78
2022-10-16T09:14:17.409Z,99730.63
2022-10-16T09:23:50.599Z,99734.86
2022-10-16T09:24:53.183Z,99736.56
2022-10-16T09:25:55.694Z,99740.56
2022-10-16T09:26:59.785Z,99744.38
2022-10-16T09:28:02.129Z,99747.15
2022-10-16T09:29:04.776Z,99746.97
2022-10-16T09:30:07.199Z,99747.31
2022-10-16T09:31:11.285Z,99754.38
2022-10-16T09:32:15.264Z,99754.86
2022-10-16T09:33:17.620Z,99754.41
2022-10-16T09:34:20.059Z,99753.62
2022-10-16T09:35:22.623Z,99752.25
2022-10-16T09:44:55.642Z,99764.48
2022-10-16T09:54:29.930Z,99769.58
2022-10-16T09:55:32.466Z,99777.64
2022-10-16T09:56:36.588Z,99772.25
2022-10-16T09:57:38.972Z,99775.70
2022-10-16T09:58:41.491Z,99773.95
2022-10-16T09:59:43.993Z,99780.12
2022-10-16T10:00:46.493Z,99784.98
2022-10-16T10:01:49.010Z,99783.94
2022-10-16T10:02:51.489Z,99782.80
2022-10-16T10:03:54.032Z,99783.88
2022-10-16T10:04:56.549Z,99781.56
2022-10-16T10:06:01.949Z,99780.33
2022-10-16T10:07:02.968Z,99782.31
2022-10-16T10:08:05.458Z,99774.27
2022-10-16T10:09:08.032Z,99772.61
2022-10-16T10:10:12.083Z,99773.53
2022-10-16T10:11:15.912Z,99770.52
2022-10-16T10:20:47.538Z,99780.89
2022-10-16T10:21:50.096Z,99778.44
2022-10-16T10:22:54.182Z,99774.80
2022-10-16T10:23:56.592Z,99773.48
2022-10-16T10:24:59.083Z,99774.30
2022-10-16T10:26:03.202Z,99770.58
2022-10-16T10:27:07.154Z,99762.99
2022-10-16T10:28:11.226Z,99767.03
2022-10-16T10:29:13.585Z,99769.66
2022-10-16T10:31:18.479Z,99766.64
2022-10-16T10:32:22.551Z,99771.39
2022-10-16T10:33:26.532Z,99769.68
2022-10-16T10:34:28.957Z,99773.53
2022-10-16T10:35:33.021Z,99764.47
2022-10-16T10:36:40.297Z,99765.32
2022-10-16T10:37:42.481Z,99764.48
2022-10-16T10:38:46.536Z,99761.59
2022-10-16T10:39:50.529Z,99769.23
2022-10-16T10:40:52.869Z,99766.38
2022-10-16T10:41:56.987Z,99772.15
2022-10-16T10:43:00.910Z,99770.85
2022-10-16T10:44:04.965Z,99775.75
2022-10-16T10:45:08.950Z,99774.19
2022-10-16T10:46:12.929Z,99777.02
2022-10-16T10:47:15.335Z,99779.11
2022-10-16T10:48:17.855Z,99771.70
2022-10-16T10:49:21.184Z,99771.88
2022-10-16T10:50:24.373Z,99771.65
2022-10-16T10:51:28.347Z,99777.37
2022-10-16T10:52:32.316Z,99774.23
2022-10-16T10:53:34.645Z,99778.02
2022-10-16T10:54:38.707Z,99780.89
2022-10-16T10:55:41.096Z,99779.45
2022-10-16T10:56:43.625Z,99779.30
2022-10-16T10:57:46.118Z,99775.88
2022-10-16T10:58:49.575Z,99776.66
2022-10-16T10:59:53.631Z,99781.39
2022-10-16T11:00:55.913Z,99780.33
2022-10-16T11:01:58.488Z,99781.86
2022-10-16T11:03:00.890Z,99776.08
2022-10-16T11:04:05.165Z,99782.81
2022-10-16T11:05:07.556Z,99778.17
2022-10-16T11:06:10.049Z,99778.81
2022-10-16T11:07:12.569Z,99785.05
2022-10-16T11:08:14.982Z,99779.86
2022-10-16T11:09:17.471Z,99782.31
2022-10-16T11:10:20.029Z,99778.06
2022-10-16T11:11:22.570Z,99775.27
2022-10-16T11:12:25.059Z,99776.67
2022-10-16T11:13:29.145Z,99768.33
2022-10-16T11:14:31.483Z,99770.09
2022-10-16T11:15:33.936Z,99771.33
2022-10-16T11:16:38.068Z,99769.99
2022-10-16T11:17:40.450Z,99771.79
2022-10-16T11:18:42.935Z,99777.06
2022-10-16T11:19:45.429Z,99773.11
2022-10-16T11:20:49.550Z,99778.36
2022-10-16T11:21:53.479Z,99779.09
2022-10-16T11:22:55.851Z,99778.72
2022-10-16T11:23:59.967Z,99777.83
2022-10-16T11:25:02.309Z,99780.32
2022-10-16T11:26:04.761Z,99779.11
2022-10-16T11:27:07.260Z,99780.17
2022-10-16T11:28:09.745Z,99776.83
2022-10-16T11:29:12.244Z,99776.30
2022-10-16T11:30:14.666Z,99778.24
2022-10-16T11:31:17.184Z,99777.86
2022-10-16T11:32:19.637Z,99778.68
2022-10-16T11:33:22.104Z,99777.73
2022-10-16T11:34:24.555Z,99770.41
2022-10-16T11:35:28.654Z,99774.69
2022-10-16T11:36:31.005Z,99772.30
2022-10-16T11:37:33.480Z,99770.63
2022-10-16T11:38:36.050Z,99768.16
2022-10-16T11:39:38.520Z,99761.11
2022-10-16T11:40:42.588Z,99764.17
2022-10-16T11:41:45.049Z,99763.39
2022-10-16T11:42:47.605Z,99770.09
2022-10-16T11:43:50.030Z,99769.67
2022-10-16T11:44:52.549Z,99764.06
2022-10-16T11:45:55.042Z,99763.45
2022-10-16T11:47:00.852Z,99757.94
2022-10-16T11:48:01.966Z,99757.72
2022-10-16T11:49:04.092Z,99756.95
2022-10-16T11:50:06.552Z,99754.56
2022-10-16T11:51:10.610Z,99751.83
2022-10-16T11:53:19.540Z,99752.09
2022-10-16T11:54:21.824Z,99752.05
2022-10-16T11:55:24.276Z,99755.79
2022-10-16T11:56:26.781Z,99760.36
2022-10-16T11:57:29.456Z,99762.23
2022-10-16T11:58:31.743Z,99763.33
2022-10-16T11:59:34.287Z,99763.91
2022-10-16T12:00:36.761Z,99759.55
2022-10-16T12:01:41.062Z,99759.77
2022-10-16T12:02:45.075Z,99757.55
2022-10-16T12:03:49.274Z,99756.25
2022-10-16T12:04:49.941Z,99758.39
2022-10-16T12:05:54.024Z,99759.09
2022-10-16T12:06:56.350Z,99755.77
2022-10-16T12:07:58.871Z,99752.03
2022-10-16T12:09:01.327Z,99750.82
2022-10-16T12:10:03.845Z,99754.63
2022-10-16T12:11:07.909Z,99756.05
2022-10-16T12:12:10.254Z,99751.11
2022-10-16T12:13:12.718Z,99752.05
2022-10-16T12:14:15.241Z,99756.17
2022-10-16T12:15:25.954Z,99759.14
2022-10-16T12:16:25.215Z,99756.72
2022-10-16T12:17:27.518Z,99755.50
2022-10-16T12:18:29.981Z,99761.47
2022-10-16T12:19:33.474Z,99759.89
2022-10-16T12:20:37.456Z,99758.50
2022-10-16T12:21:41.447Z,99762.07
2022-10-16T12:22:43.803Z,99765.58
2022-10-16T12:23:46.338Z,99765.81
2022-10-16T12:24:48.910Z,99761.77
2022-10-16T12:25:53.012Z,99764.97
2022-10-16T12:26:55.441Z,99762.03
2022-10-16T12:27:57.873Z,99760.09
2022-10-16T12:29:02.165Z,99756.16
2022-10-16T12:30:04.440Z,99756.19
2022-10-16T12:31:06.942Z,99756.91
2022-10-16T12:32:10.945Z,99759.67
2022-10-16T12:33:13.518Z,99760.86
2022-10-16T12:34:15.850Z,99764.23
2022-10-16T12:35:19.952Z,99764.66
2022-10-16T12:36:24.845Z,99772.59
2022-10-16T12:37:26.394Z,99770.78
2022-10-16T12:38:28.768Z,99769.90
2022-10-16T12:39:32.851Z,99769.00
2022-10-16T12:40:36.855Z,99766.18
2022-10-16T12:41:39.223Z,99768.39
2022-10-16T12:42:43.309Z,99765.97
2022-10-16T12:43:46.665Z,99764.75
2022-10-16T12:44:49.061Z,99765.56
2022-10-16T12:45:51.545Z,99762.65
2022-10-16T12:46:54.031Z,99762.45
2022-10-16T12:47:59.139Z,99767.55
2022-10-16T12:49:06.837Z,99764.24
2022-10-16T12:50:09.155Z,99765.41
2022-10-16T12:51:07.854Z,99762.60
2022-10-16T12:52:12.002Z,99766.30
2022-10-16T12:53:15.992Z,99760.54
2022-10-16T12:54:19.942Z,99765.16
2022-10-16T12:55:22.339Z,99765.16
2022-10-16T12:56:24.814Z,99762.73
2022-10-16T12:57:27.597Z,99766.53
2022-10-16T12:58:29.858Z,99762.95
2022-10-16T12:59:32.422Z,99770.64
2022-10-16T13:00:34.896Z,99768.67
2022-10-16T13:01:37.375Z,99770.05
2022-10-16T13:02:39.913Z,99770.17
2022-10-16T13:03:44.096Z,99770.52
2022-10-16T13:04:48.023Z,99776.69
2022-10-16T13:05:50.386Z,99773.73
2022-10-16T13:06:52.886Z,99775.05
2022-10-16T13:07:55.303Z,99768.26
2022-10-16T13:08:59.429Z,99769.99
2022-10-16T13:10:03.312Z,99772.69
2022-10-16T13:11:07.288Z,99769.04
2022-10-16T13:12:09.696Z,99772.02
2022-10-16T13:13:12.192Z,99775.23
2022-10-16T13:14:14.667Z,99775.55
2022-10-16T13:15:19.756Z,99781.78
2022-10-16T13:16:22.049Z,99784.35
2022-10-16T13:17:26.470Z,99785.08
2022-10-16T13:18:30.142Z,99783.55
2022-10-16T13:19:32.451Z,99785.13
2022-10-16T13:20:34.931Z,99788.36
2022-10-16T13:21:39.095Z,99787.51
2022-10-16T13:22:41.425Z,99792.97
2022-10-16T13:23:44.009Z,99788.69
2022-10-16T13:24:46.435Z,99789.77
2022-10-16T13:25:51.521Z,99787.09
2022-10-16T13:26:55.406Z,99787.86
2022-10-16T13:27:57.740Z,99785.88
2022-10-16T13:29:00.278Z,99780.36
2022-10-16T13:30:04.411Z,99785.10
2022-10-16T13:31:08.353Z,99783.51
2022-10-16T13:32:12.293Z,99786.23
2022-10-16T13:33:14.654Z,99783.87
2022-10-16T13:34:17.131Z,99778.57
2022-10-16T13:35:19.660Z,99774.89
2022-10-16T13:36:22.126Z,99776.13
2022-10-16T13:37:27.516Z,99773.38
2022-10-16T13:38:31.137Z,99777.80
2022-10-16T13:39:33.417Z,99776.41
2022-10-16T13:40:37.454Z,99773.42
2022-10-16T13:41:39.807Z,99771.08
2022-10-16T13:42:42.323Z,99765.41
2022-10-16T13:43:46.367Z,99760.06
2022-10-16T13:44:50.385Z,99764.52
2022-10-16T13:45:52.737Z,99763.64
2022-10-16T13:46:56.869Z,99762.11
2022-10-16T13:47:59.205Z,99764.49
2022-10-16T13:49:01.702Z,99759.77
2022-10-16T13:50:04.191Z,99763.13
2022-10-16T13:51:06.729Z,99757.39
2022-10-16T13:52:09.244Z,99756.56
2022-10-16T13:53:11.755Z,99748.43
2022-10-16T13:54:14.236Z,99749.36
2022-10-16T13:55:16.751Z,99746.80
2022-10-16T13:56:19.236Z,99749.70
2022-10-16T13:57:27.015Z,99754.70
2022-10-16T13:58:25.769Z,99758.79
2022-10-16T13:59:29.222Z,99763.24
2022-10-16T14:00:31.748Z,99760.42
2022-10-16T14:01:34.155Z,99759.83
2022-10-16T14:02:38.200Z,99759.90
2022-10-16T14:03:42.211Z,99758.02
2022-10-16T14:04:44.603Z,99759.30
2022-10-16T14:05:47.067Z,99757.61
2022-10-16T14:06:49.620Z,99755.41
2022-10-16T14:07:52.141Z,99757.31
2022-10-16T14:08:54.662Z,99756.58
2022-10-16T14:09:58.766Z,99757.86
2022-10-16T14:11:01.121Z,99760.23
2022-10-16T14:20:33.511Z,99776.59
2022-10-16T14:21:36.072Z,99777.28
2022-10-16T14:22:38.588Z,99779.55
2022-10-16T14:23:41.078Z,99779.46
2022-10-16T14:24:43.597Z,99778.94
2022-10-16T14:25:46.140Z,99773.89
2022-10-16T14:26:50.968Z,99775.47
2022-10-16T14:27:51.189Z,99779.02
2022-10-16T14:28:53.681Z,99774.56
2022-10-16T14:29:57.732Z,99772.34
2022-10-16T14:31:00.095Z,99770.94
2022-10-16T14:32:04.167Z,99772.84
2022-10-16T14:33:06.589Z,99772.77
2022-10-16T14:34:09.079Z,99771.10
2022-10-16T14:35:11.559Z,99776.23
2022-10-16T14:36:14.028Z,99778.50
2022-10-16T14:37:16.559Z,99775.56
2022-10-16T14:38:19.034Z,99775.22
2022-10-16T14:39:21.520Z,99771.65
2022-10-16T14:40:24.027Z,99766.81
2022-10-16T14:41:26.476Z,99766.53
2022-10-16T14:42:28.986Z,99771.78
2022-10-16T14:43:31.460Z,99773.58
2022-10-16T14:44:34.021Z,99771.91
2022-10-16T14:45:36.452Z,99779.95
2022-10-16T14:46:38.977Z,99778.98
2022-10-16T14:47:41.432Z,99776.78
2022-10-16T14:48:43.923Z,99778.03
2022-10-16T14:49:46.431Z,99776.19
2022-10-16T14:50:48.905Z,99773.32
2022-10-16T14:51:51.446Z,99772.02
2022-10-16T14:52:53.918Z,99772.45
2022-10-16T14:53:59.916Z,99772.52
2022-10-16T14:54:58.865Z,99767.33
2022-10-16T14:56:01.388Z,99767.58
2022-10-16T14:57:03.946Z,99770.84
2022-10-16T14:58:06.459Z,99773.45
2022-10-16T14:59:08.881Z,99777.27
2022-10-16T15:00:12.985Z,99778.99
2022-10-16T15:01:16.975Z,99778.42
2022-10-16T15:02:19.345Z,99782.58
2022-10-16T15:03:23.451Z,99780.94
2022-10-16T15:04:25.728Z,99785.04
2022-10-16T15:05:28.248Z,99783.70
2022-10-16T15:06:32.315Z,99786.50
2022-10-16T15:07:36.278Z,99787.44
2022-10-16T15:08:40.211Z,99786.80
2022-10-16T15:09:46.451Z,99786.13
2022-10-16T15:10:45.083Z,99786.80
2022-10-16T15:11:47.681Z,99786.30
2022-10-16T15:12:50.158Z,99784.91
2022-10-16T15:13:54.278Z,99785.47
2022-10-16T15:14:58.331Z,99782.19
2022-10-16T15:16:00.656Z,99787.92
2022-10-16T15:17:03.125Z,99786.00
2022-10-16T15:18:05.662Z,99789.20
2022-10-16T15:19:08.117Z,99786.16
2022-10-16T15:20:11.642Z,99789.72
2022-10-16T15:21:15.643Z,99786.23
2022-10-16T15:22:18.036Z,99786.38
2022-10-16T15:23:22.169Z,99791.84
2022-10-16T15:24:26.106Z,99792.82
2022-10-16T15:25:28.406Z,99796.84
2022-10-16T15:26:30.961Z,99798.38
2022-10-16T15:27:33.432Z,99800.38
2022-10-16T15:28:35.958Z,99796.18
2022-10-16T15:29:39.991Z,99796.75
2022-10-16T15:30:43.977Z,99798.83
2022-10-16T15:31:47.977Z,99798.81
2022-10-16T15:32:51.912Z,99799.06
2022-10-16T15:33:54.235Z,99797.59
2022-10-16T15:34:56.716Z,99799.63
2022-10-16T15:35:59.181Z,99801.89
2022-10-16T15:37:01.676Z,99796.84
2022-10-16T15:38:04.166Z,99803.41
2022-10-16T15:39:08.226Z,99801.78
2022-10-16T15:40:10.609Z,99801.13
2022-10-16T15:41:13.074Z,99799.42
2022-10-16T15:42:15.639Z,99795.84
2022-10-16T15:43:18.996Z,99801.75
2022-10-16T15:44:23.014Z,99797.41
2022-10-16T15:45:27.146Z,99796.27
2022-10-16T15:46:31.190Z,99793.55
2022-10-16T15:47:33.426Z,99791.16
2022-10-16T15:48:35.984Z,99793.78
2022-10-16T15:49:40.064Z,99792.27
2022-10-16T15:51:47.328Z,99795.94
2022-10-16T15:52:49.824Z,99793.19
2022-10-16T15:53:52.303Z,99798.04
2022-10-16T15:54:54.787Z,99798.92
2022-10-16T15:55:57.301Z,99799.07
2022-10-16T15:57:01.409Z,99796.75
2022-10-16T15:58:03.748Z,99796.31
2022-10-16T15:59:06.264Z,99798.11
2022-10-16T16:00:10.675Z,99797.13
2022-10-16T16:01:12.840Z,99799.81
2022-10-16T16:02:16.809Z,99798.79
2022-10-16T16:03:19.147Z,99797.10
2022-10-16T16:05:24.168Z,99797.27
2022-10-16T16:06:26.643Z,99798.58
2022-10-16T16:07:30.776Z,99800.31
2022-10-16T16:08:34.734Z,99798.84
2022-10-16T16:27:40.741Z,99797.94
2022-10-16T16:28:43.346Z,99797.05
2022-10-16T16:38:18.491Z,99807.17
2022-10-16T16:47:50.821Z,99805.31
2022-10-16T16:57:25.697Z,99812.95
2022-10-16T17:06:59.753Z,99821.56
2022-10-16T17:16:36.123Z,99824.38
2022-10-16T17:26:08.718Z,99828.13
2022-10-16T17:35:43.003Z,99833.14
2022-10-16T17:45:19.035Z,99849.60
2022-10-16T17:54:51.666Z,99865.03
2022-10-16T18:04:26.105Z,99873.88
2022-10-16T18:14:00.431Z,99880.86
2022-10-16T18:23:34.594Z,99875.72
2022-10-16T18:33:09.079Z,99877.71
2022-10-16T18:42:43.644Z,99881.88
2022-10-16T18:52:17.746Z,99895.73
2022-10-16T19:01:51.988Z,99887.22
2022-10-16T19:11:26.049Z,99894.02
2022-10-16T19:21:00.378Z,99905.09
2022-10-16T19:30:34.664Z,99920.33
2022-10-16T19:40:09.520Z,99924.79
2022-10-16T19:49:45.878Z,99935.03
2022-10-16T19:59:20.290Z,99929.64
2022-10-16T20:08:54.444Z,99944.13
2022-10-16T20:18:26.967Z,99936.19
2022-10-16T20:28:00.991Z,99932.95
2022-10-16T20:37:35.282Z,99942.18
2022-10-16T20:47:10.592Z,99948.46
2022-10-16T20:48:13.022Z,99956.66
2022-10-16T20:57:47.870Z,99949.22
2022-10-16T21:07:21.093Z,99946.45
2022-10-16T21:16:55.357Z,99949.53
2022-10-16T21:26:29.928Z,99965.49
2022-10-16T21:36:04.210Z,99968.22
2022-10-16T21:45:40.169Z,99958.85
2022-10-16T21:55:13.227Z,99950.08
2022-10-16T22:04:49.534Z,99954.87
2022-10-16T22:14:22.575Z,99953.42
2022-10-16T22:23:56.833Z,99951.92
2022-10-16T22:43:05.986Z,99980.98
2022-10-16T22:52:40.217Z,99985.19
2022-10-16T23:02:16.168Z,99997.08
2022-10-16T23:11:50.486Z,100003.52
2022-10-16T23:21:24.387Z,100013.03
2022-10-16T23:30:58.887Z,100014.24
2022-10-16T23:40:33.251Z,100015.94
2022-10-16T23:50:05.658Z,100022.80
2022-10-16T23:59:40.128Z,100028.72
